Accueil
METAR-TAF:

METAR-TAF

Aéroports :

Aéroport Franjo-Tuđman de Zagreb

Zagreb, Croatie

latitude: 45-44N, longitude: 016-04E, altitude: 106 m

Observation

Le bulletin a été fait il y a 22 minutes, à 03:30 UTC
Vent 3 kt de sud/sud-ouest
Température 11°C
Humidité 94%
Pression 1014 hPa
Visibilité 10 km ou plus
pas de nuages en-dessous de 1500 mètres et pas de cumulonimbus.

METAR: LDZA 150330Z 21003KT CAVOK 11/10 Q1014 NOSIG

Heure: 05:52 (03:52 UTC)

Prévision

Le bulletin a été fait il y a 4 heures et 27 minutes, à 23:25 UTC
Prévision valable du 15 à 00 UTC au 16 à 00 UTC
Vent 5 kt de est
Visibilité 10 km ou plus
pas de nuages en-dessous de 1500 mètres et pas de cumulonimbus.

TAF: LDZA 142325Z 1500/1600 10005KT CAVOK TX27/1513Z TN12/1503Z

Observations et prévisions météorologiques de plus de 4000 aéroports (messages METAR et TAF).

Les stations disponibles sont représentées par des disques jaunes et rouges sur la carte.

Passer la souris dessus pour voir le nom de la station.

Cliquer dessus pour voir les observations et prévisions météorologiques.

Pour changer de carte: cliquez sur les boutons verts avec une croix noire pour zoomer, sur le bouton vert avec un tiret pour effectuer un zoom arrière, ou sur les flèches vertes pour les cartes adjacentes.


METAR-TAF: